sensor_id;sensor_type;location;lat;lon;timestamp;P1;durP1;ratioP1;P2;durP2;ratioP2
14369;SDS011;7268;50.792;0.252;2022-12-11T00:00:48;1.40;;;0.80;;
14369;SDS011;7268;50.792;0.252;2022-12-11T00:03:15;1.98;;;0.80;;
14369;SDS011;7268;50.792;0.252;2022-12-11T00:05:43;1.50;;;0.63;;
14369;SDS011;7268;50.792;0.252;2022-12-11T00:08:11;3.67;;;0.80;;
14369;SDS011;7268;50.792;0.252;2022-12-11T00:10:45;3.70;;;1.20;;
14369;SDS011;7268;50.792;0.252;2022-12-11T00:13:13;3.13;;;1.20;;
14369;SDS011;7268;50.792;0.252;2022-12-11T00:15:40;2.40;;;1.00;;
14369;SDS011;7268;50.792;0.252;2022-12-11T00:18:10;4.75;;;0.77;;
14369;SDS011;7268;50.792;0.252;2022-12-11T00:20:38;1.70;;;1.00;;
14369;SDS011;7268;50.792;0.252;2022-12-11T00:23:05;6.70;;;1.00;;
14369;SDS011;7268;50.792;0.252;2022-12-11T00:25:32;5.15;;;0.90;;
14369;SDS011;7268;50.792;0.252;2022-12-11T00:27:59;3.78;;;0.90;;
14369;SDS011;7268;50.792;0.252;2022-12-11T00:30:27;2.63;;;0.80;;
14369;SDS011;7268;50.792;0.252;2022-12-11T00:32:54;3.20;;;0.95;;
14369;SDS011;7268;50.792;0.252;2022-12-11T00:35:21;3.22;;;0.90;;
14369;SDS011;7268;50.792;0.252;2022-12-11T00:37:48;4.18;;;0.55;;
14369;SDS011;7268;50.792;0.252;2022-12-11T00:40:16;3.65;;;0.70;;
14369;SDS011;7268;50.792;0.252;2022-12-11T00:42:43;1.33;;;0.70;;
14369;SDS011;7268;50.792;0.252;2022-12-11T00:45:10;3.05;;;1.00;;
14369;SDS011;7268;50.792;0.252;2022-12-11T00:47:38;2.63;;;1.10;;
14369;SDS011;7268;50.792;0.252;2022-12-11T00:50:05;5.88;;;1.10;;
14369;SDS011;7268;50.792;0.252;2022-12-11T00:52:33;1.33;;;0.73;;
14369;SDS011;7268;50.792;0.252;2022-12-11T00:55:00;4.60;;;1.40;;
14369;SDS011;7268;50.792;0.252;2022-12-11T00:57:27;2.33;;;1.25;;
14369;SDS011;7268;50.792;0.252;2022-12-11T00:59:54;4.13;;;0.90;;
14369;SDS011;7268;50.792;0.252;2022-12-11T01:02:22;1.90;;;0.90;;
14369;SDS011;7268;50.792;0.252;2022-12-11T01:04:49;2.28;;;0.90;;
14369;SDS011;7268;50.792;0.252;2022-12-11T01:07:16;3.00;;;1.05;;
14369;SDS011;7268;50.792;0.252;2022-12-11T01:09:44;2.83;;;1.00;;
14369;SDS011;7268;50.792;0.252;2022-12-11T01:12:30;4.65;;;0.90;;
14369;SDS011;7268;50.792;0.252;2022-12-11T01:14:57;2.15;;;0.60;;
14369;SDS011;7268;50.792;0.252;2022-12-11T01:17:24;2.13;;;1.00;;
14369;SDS011;7268;50.792;0.252;2022-12-11T01:19:55;1.23;;;0.80;;
14369;SDS011;7268;50.792;0.252;2022-12-11T01:22:22;5.53;;;0.85;;
14369;SDS011;7268;50.792;0.252;2022-12-11T01:24:49;1.33;;;0.65;;
14369;SDS011;7268;50.792;0.252;2022-12-11T01:27:16;3.33;;;0.68;;
14369;SDS011;7268;50.792;0.252;2022-12-11T01:29:44;6.63;;;0.85;;
14369;SDS011;7268;50.792;0.252;2022-12-11T01:32:11;1.80;;;0.70;;
14369;SDS011;7268;50.792;0.252;2022-12-11T01:34:38;2.45;;;0.70;;
14369;SDS011;7268;50.792;0.252;2022-12-11T01:37:05;4.93;;;1.23;;
14369;SDS011;7268;50.792;0.252;2022-12-11T01:39:33;4.72;;;1.45;;
14369;SDS011;7268;50.792;0.252;2022-12-11T01:42:00;3.15;;;1.00;;
14369;SDS011;7268;50.792;0.252;2022-12-11T01:46:54;4.13;;;1.50;;
14369;SDS011;7268;50.792;0.252;2022-12-11T01:49:23;4.93;;;1.10;;
14369;SDS011;7268;50.792;0.252;2022-12-11T01:51:55;1.92;;;0.80;;
14369;SDS011;7268;50.792;0.252;2022-12-11T01:54:24;5.13;;;1.05;;
14369;SDS011;7268;50.792;0.252;2022-12-11T01:56:54;2.00;;;0.57;;
14369;SDS011;7268;50.792;0.252;2022-12-11T01:59:22;1.75;;;0.80;;
14369;SDS011;7268;50.792;0.252;2022-12-11T02:02:01;0.88;;;0.47;;
14369;SDS011;7268;50.792;0.252;2022-12-11T02:04:29;3.63;;;0.70;;
14369;SDS011;7268;50.792;0.252;2022-12-11T02:06:57;3.28;;;0.60;;
14369;SDS011;7268;50.792;0.252;2022-12-11T02:09:29;1.88;;;0.60;;
14369;SDS011;7268;50.792;0.252;2022-12-11T02:12:02;1.48;;;0.50;;
14369;SDS011;7268;50.792;0.252;2022-12-11T02:17:13;4.13;;;0.63;;
14369;SDS011;7268;50.792;0.252;2022-12-11T02:22:12;2.80;;;0.80;;
14369;SDS011;7268;50.792;0.252;2022-12-11T02:24:55;4.43;;;0.90;;
14369;SDS011;7268;50.792;0.252;2022-12-11T02:27:29;1.90;;;0.70;;
14369;SDS011;7268;50.792;0.252;2022-12-11T02:30:06;2.20;;;0.60;;
14369;SDS011;7268;50.792;0.252;2022-12-11T02:32:38;2.08;;;0.80;;
14369;SDS011;7268;50.792;0.252;2022-12-11T02:35:11;2.30;;;0.80;;
14369;SDS011;7268;50.792;0.252;2022-12-11T02:37:40;2.35;;;0.57;;
14369;SDS011;7268;50.792;0.252;2022-12-11T02:40:10;2.38;;;0.90;;
14369;SDS011;7268;50.792;0.252;2022-12-11T02:42:39;3.28;;;0.73;;
14369;SDS011;7268;50.792;0.252;2022-12-11T02:45:07;1.85;;;0.70;;
14369;SDS011;7268;50.792;0.252;2022-12-11T02:47:36;4.05;;;1.80;;
14369;SDS011;7268;50.792;0.252;2022-12-11T02:50:06;2.22;;;0.60;;
14369;SDS011;7268;50.792;0.252;2022-12-11T02:52:35;3.25;;;0.70;;
14369;SDS011;7268;50.792;0.252;2022-12-11T02:55:04;1.77;;;0.60;;
14369;SDS011;7268;50.792;0.252;2022-12-11T03:00:39;0.98;;;0.40;;
14369;SDS011;7268;50.792;0.252;2022-12-11T03:03:06;3.13;;;0.65;;
14369;SDS011;7268;50.792;0.252;2022-12-11T03:05:34;1.27;;;0.50;;
14369;SDS011;7268;50.792;0.252;2022-12-11T03:08:01;3.40;;;0.70;;
14369;SDS011;7268;50.792;0.252;2022-12-11T03:10:28;1.92;;;0.63;;
14369;SDS011;7268;50.792;0.252;2022-12-11T03:12:56;1.75;;;0.60;;
14369;SDS011;7268;50.792;0.252;2022-12-11T03:15:33;1.63;;;0.63;;
14369;SDS011;7268;50.792;0.252;2022-12-11T03:25:39;3.47;;;0.55;;
14369;SDS011;7268;50.792;0.252;2022-12-11T03:28:10;2.90;;;0.60;;
14369;SDS011;7268;50.792;0.252;2022-12-11T03:30:39;3.33;;;0.90;;
14369;SDS011;7268;50.792;0.252;2022-12-11T03:33:10;2.20;;;0.95;;
14369;SDS011;7268;50.792;0.252;2022-12-11T03:38:37;4.32;;;0.77;;
14369;SDS011;7268;50.792;0.252;2022-12-11T03:41:08;1.55;;;0.55;;
14369;SDS011;7268;50.792;0.252;2022-12-11T03:43:36;2.50;;;0.60;;
14369;SDS011;7268;50.792;0.252;2022-12-11T03:46:04;1.73;;;0.60;;
14369;SDS011;7268;50.792;0.252;2022-12-11T03:48:32;1.70;;;0.50;;
14369;SDS011;7268;50.792;0.252;2022-12-11T03:51:02;2.33;;;0.70;;
14369;SDS011;7268;50.792;0.252;2022-12-11T03:53:32;1.67;;;0.70;;
14369;SDS011;7268;50.792;0.252;2022-12-11T03:56:01;1.55;;;0.50;;
14369;SDS011;7268;50.792;0.252;2022-12-11T03:58:28;2.65;;;0.60;;
14369;SDS011;7268;50.792;0.252;2022-12-11T04:00:56;2.25;;;0.50;;
14369;SDS011;7268;50.792;0.252;2022-12-11T04:03:23;0.90;;;0.57;;
14369;SDS011;7268;50.792;0.252;2022-12-11T04:05:51;2.03;;;0.70;;
14369;SDS011;7268;50.792;0.252;2022-12-11T04:08:19;3.60;;;1.00;;
14369;SDS011;7268;50.792;0.252;2022-12-11T04:10:46;3.42;;;0.70;;
14369;SDS011;7268;50.792;0.252;2022-12-11T04:13:14;1.98;;;0.60;;
14369;SDS011;7268;50.792;0.252;2022-12-11T04:15:41;2.45;;;0.60;;
14369;SDS011;7268;50.792;0.252;2022-12-11T04:18:08;2.35;;;0.55;;
14369;SDS011;7268;50.792;0.252;2022-12-11T04:20:55;0.50;;;0.40;;
14369;SDS011;7268;50.792;0.252;2022-12-11T04:23:41;2.70;;;0.65;;
14369;SDS011;7268;50.792;0.252;2022-12-11T04:26:27;3.60;;;0.60;;
14369;SDS011;7268;50.792;0.252;2022-12-11T04:28:54;2.33;;;0.80;;
14369;SDS011;7268;50.792;0.252;2022-12-11T04:31:22;1.02;;;0.50;;
14369;SDS011;7268;50.792;0.252;2022-12-11T04:33:49;1.50;;;0.40;;
14369;SDS011;7268;50.792;0.252;2022-12-11T04:36:17;1.55;;;0.60;;
14369;SDS011;7268;50.792;0.252;2022-12-11T04:38:44;2.35;;;0.65;;
14369;SDS011;7268;50.792;0.252;2022-12-11T04:41:12;2.95;;;0.65;;
14369;SDS011;7268;50.792;0.252;2022-12-11T04:43:40;1.48;;;0.50;;
14369;SDS011;7268;50.792;0.252;2022-12-11T04:46:14;2.10;;;0.45;;
14369;SDS011;7268;50.792;0.252;2022-12-11T04:48:42;4.18;;;0.52;;
14369;SDS011;7268;50.792;0.252;2022-12-11T04:51:10;1.85;;;0.40;;
14369;SDS011;7268;50.792;0.252;2022-12-11T04:53:38;2.22;;;0.45;;
14369;SDS011;7268;50.792;0.252;2022-12-11T04:56:09;1.92;;;0.60;;
14369;SDS011;7268;50.792;0.252;2022-12-11T04:58:37;1.23;;;0.40;;
14369;SDS011;7268;50.792;0.252;2022-12-11T05:01:08;1.13;;;0.47;;
14369;SDS011;7268;50.792;0.252;2022-12-11T05:03:36;5.28;;;0.60;;
14369;SDS011;7268;50.792;0.252;2022-12-11T05:06:03;2.88;;;0.43;;
14369;SDS011;7268;50.792;0.252;2022-12-11T05:08:32;2.83;;;0.50;;
14369;SDS011;7268;50.792;0.252;2022-12-11T05:11:04;1.85;;;0.57;;
14369;SDS011;7268;50.792;0.252;2022-12-11T05:13:31;1.17;;;0.47;;
14369;SDS011;7268;50.792;0.252;2022-12-11T05:15:59;1.77;;;0.50;;
14369;SDS011;7268;50.792;0.252;2022-12-11T05:18:26;3.22;;;0.60;;
14369;SDS011;7268;50.792;0.252;2022-12-11T05:20:54;2.58;;;0.52;;
14369;SDS011;7268;50.792;0.252;2022-12-11T05:23:22;1.00;;;0.40;;
14369;SDS011;7268;50.792;0.252;2022-12-11T05:25:56;0.98;;;0.50;;
14369;SDS011;7268;50.792;0.252;2022-12-11T05:28:24;1.50;;;0.35;;
14369;SDS011;7268;50.792;0.252;2022-12-11T05:30:58;3.35;;;0.38;;
14369;SDS011;7268;50.792;0.252;2022-12-11T05:33:26;0.75;;;0.50;;
14369;SDS011;7268;50.792;0.252;2022-12-11T05:35:54;1.25;;;0.50;;
14369;SDS011;7268;50.792;0.252;2022-12-11T05:38:21;1.52;;;0.50;;
14369;SDS011;7268;50.792;0.252;2022-12-11T05:40:55;0.40;;;0.30;;
14369;SDS011;7268;50.792;0.252;2022-12-11T05:43:23;2.85;;;0.47;;
14369;SDS011;7268;50.792;0.252;2022-12-11T05:45:50;2.83;;;0.43;;
14369;SDS011;7268;50.792;0.252;2022-12-11T05:48:17;1.67;;;0.40;;
14369;SDS011;7268;50.792;0.252;2022-12-11T05:50:54;1.90;;;0.43;;
14369;SDS011;7268;50.792;0.252;2022-12-11T05:53:22;2.35;;;0.40;;
14369;SDS011;7268;50.792;0.252;2022-12-11T05:55:49;1.88;;;0.60;;
14369;SDS011;7268;50.792;0.252;2022-12-11T05:58:17;1.00;;;0.57;;
14369;SDS011;7268;50.792;0.252;2022-12-11T06:00:45;1.17;;;0.55;;
14369;SDS011;7268;50.792;0.252;2022-12-11T06:03:12;1.83;;;0.47;;
14369;SDS011;7268;50.792;0.252;2022-12-11T06:05:40;0.70;;;0.40;;
14369;SDS011;7268;50.792;0.252;2022-12-11T06:08:08;1.23;;;0.63;;
14369;SDS011;7268;50.792;0.252;2022-12-11T06:10:36;1.13;;;0.55;;
14369;SDS011;7268;50.792;0.252;2022-12-11T06:13:04;2.13;;;0.80;;
14369;SDS011;7268;50.792;0.252;2022-12-11T06:15:31;1.30;;;0.63;;
14369;SDS011;7268;50.792;0.252;2022-12-11T06:17:58;2.03;;;0.60;;
14369;SDS011;7268;50.792;0.252;2022-12-11T06:20:25;1.65;;;0.70;;
14369;SDS011;7268;50.792;0.252;2022-12-11T06:22:53;4.40;;;0.70;;
14369;SDS011;7268;50.792;0.252;2022-12-11T06:25:20;4.30;;;0.70;;
14369;SDS011;7268;50.792;0.252;2022-12-11T06:27:48;2.83;;;0.68;;
14369;SDS011;7268;50.792;0.252;2022-12-11T06:30:16;7.35;;;0.73;;
14369;SDS011;7268;50.792;0.252;2022-12-11T06:32:43;2.25;;;0.90;;
14369;SDS011;7268;50.792;0.252;2022-12-11T06:35:11;5.03;;;1.02;;
14369;SDS011;7268;50.792;0.252;2022-12-11T06:37:39;2.15;;;0.90;;
14369;SDS011;7268;50.792;0.252;2022-12-11T06:40:07;2.90;;;0.75;;
14369;SDS011;7268;50.792;0.252;2022-12-11T06:42:34;4.05;;;0.90;;
14369;SDS011;7268;50.792;0.252;2022-12-11T06:45:02;5.13;;;1.08;;
14369;SDS011;7268;50.792;0.252;2022-12-11T06:47:29;2.22;;;0.90;;
14369;SDS011;7268;50.792;0.252;2022-12-11T06:49:57;4.03;;;1.30;;
14369;SDS011;7268;50.792;0.252;2022-12-11T06:52:25;4.43;;;1.45;;
14369;SDS011;7268;50.792;0.252;2022-12-11T06:54:55;7.85;;;1.92;;
14369;SDS011;7268;50.792;0.252;2022-12-11T06:57:23;3.30;;;1.60;;
14369;SDS011;7268;50.792;0.252;2022-12-11T06:59:50;5.05;;;1.77;;
14369;SDS011;7268;50.792;0.252;2022-12-11T07:02:18;3.35;;;1.10;;
14369;SDS011;7268;50.792;0.252;2022-12-11T07:04:45;5.38;;;1.70;;
14369;SDS011;7268;50.792;0.252;2022-12-11T07:07:20;2.95;;;1.33;;
14369;SDS011;7268;50.792;0.252;2022-12-11T07:09:47;3.13;;;1.38;;
14369;SDS011;7268;50.792;0.252;2022-12-11T07:12:15;3.17;;;1.35;;
14369;SDS011;7268;50.792;0.252;2022-12-11T07:14:43;5.10;;;2.03;;
14369;SDS011;7268;50.792;0.252;2022-12-11T07:17:10;5.22;;;1.60;;
14369;SDS011;7268;50.792;0.252;2022-12-11T07:19:38;3.30;;;1.17;;
14369;SDS011;7268;50.792;0.252;2022-12-11T07:22:05;4.72;;;1.50;;
14369;SDS011;7268;50.792;0.252;2022-12-11T07:24:33;6.60;;;1.73;;
14369;SDS011;7268;50.792;0.252;2022-12-11T07:27:00;5.22;;;1.40;;
14369;SDS011;7268;50.792;0.252;2022-12-11T07:29:29;6.53;;;1.50;;
14369;SDS011;7268;50.792;0.252;2022-12-11T07:31:56;5.78;;;2.03;;
14369;SDS011;7268;50.792;0.252;2022-12-11T07:34:23;5.55;;;2.38;;
14369;SDS011;7268;50.792;0.252;2022-12-11T07:36:51;6.55;;;2.25;;
14369;SDS011;7268;50.792;0.252;2022-12-11T07:39:18;2.67;;;1.10;;
14369;SDS011;7268;50.792;0.252;2022-12-11T07:41:45;5.25;;;1.85;;
14369;SDS011;7268;50.792;0.252;2022-12-11T07:44:13;3.75;;;1.27;;
14369;SDS011;7268;50.792;0.252;2022-12-11T07:46:40;7.72;;;1.83;;
14369;SDS011;7268;50.792;0.252;2022-12-11T07:49:07;4.47;;;1.77;;
14369;SDS011;7268;50.792;0.252;2022-12-11T07:51:35;5.03;;;2.25;;
14369;SDS011;7268;50.792;0.252;2022-12-11T07:54:04;4.85;;;1.95;;
14369;SDS011;7268;50.792;0.252;2022-12-11T07:56:31;10.35;;;3.55;;
14369;SDS011;7268;50.792;0.252;2022-12-11T07:58:59;12.57;;;3.53;;
14369;SDS011;7268;50.792;0.252;2022-12-11T08:01:27;8.77;;;3.45;;
14369;SDS011;7268;50.792;0.252;2022-12-11T08:03:55;11.43;;;4.07;;
14369;SDS011;7268;50.792;0.252;2022-12-11T08:06:24;6.53;;;2.80;;
14369;SDS011;7268;50.792;0.252;2022-12-11T08:08:52;5.65;;;2.55;;
14369;SDS011;7268;50.792;0.252;2022-12-11T08:11:19;8.63;;;3.25;;
14369;SDS011;7268;50.792;0.252;2022-12-11T08:13:47;6.10;;;2.15;;
14369;SDS011;7268;50.792;0.252;2022-12-11T08:16:14;7.43;;;2.35;;
14369;SDS011;7268;50.792;0.252;2022-12-11T08:18:43;7.00;;;2.67;;
14369;SDS011;7268;50.792;0.252;2022-12-11T08:21:12;9.20;;;2.17;;
14369;SDS011;7268;50.792;0.252;2022-12-11T08:23:40;7.70;;;2.88;;
14369;SDS011;7268;50.792;0.252;2022-12-11T08:26:09;6.32;;;2.25;;
14369;SDS011;7268;50.792;0.252;2022-12-11T08:28:36;6.57;;;2.25;;
14369;SDS011;7268;50.792;0.252;2022-12-11T08:31:04;5.78;;;2.35;;
14369;SDS011;7268;50.792;0.252;2022-12-11T08:33:32;6.15;;;2.17;;
14369;SDS011;7268;50.792;0.252;2022-12-11T08:36:06;7.82;;;2.70;;
14369;SDS011;7268;50.792;0.252;2022-12-11T08:38:35;6.80;;;2.70;;
14369;SDS011;7268;50.792;0.252;2022-12-11T08:41:12;8.25;;;2.75;;
14369;SDS011;7268;50.792;0.252;2022-12-11T08:43:40;4.57;;;2.17;;
14369;SDS011;7268;50.792;0.252;2022-12-11T08:46:07;5.90;;;2.30;;
14369;SDS011;7268;50.792;0.252;2022-12-11T08:48:38;7.55;;;3.10;;
14369;SDS011;7268;50.792;0.252;2022-12-11T08:51:06;5.80;;;2.50;;
14369;SDS011;7268;50.792;0.252;2022-12-11T08:53:34;5.75;;;2.60;;
14369;SDS011;7268;50.792;0.252;2022-12-11T08:56:05;10.55;;;2.72;;
14369;SDS011;7268;50.792;0.252;2022-12-11T08:58:33;5.57;;;2.80;;
14369;SDS011;7268;50.792;0.252;2022-12-11T09:01:07;6.40;;;2.58;;
14369;SDS011;7268;50.792;0.252;2022-12-11T09:03:36;4.45;;;2.13;;
14369;SDS011;7268;50.792;0.252;2022-12-11T09:06:04;4.78;;;1.92;;
14369;SDS011;7268;50.792;0.252;2022-12-11T09:08:32;5.28;;;1.50;;
14369;SDS011;7268;50.792;0.252;2022-12-11T09:11:06;6.78;;;1.88;;
14369;SDS011;7268;50.792;0.252;2022-12-11T09:13:34;3.10;;;1.45;;
14369;SDS011;7268;50.792;0.252;2022-12-11T09:16:08;4.65;;;1.45;;
14369;SDS011;7268;50.792;0.252;2022-12-11T09:18:36;3.78;;;1.40;;
14369;SDS011;7268;50.792;0.252;2022-12-11T09:21:05;5.50;;;1.08;;
14369;SDS011;7268;50.792;0.252;2022-12-11T09:23:32;4.07;;;1.58;;
14369;SDS011;7268;50.792;0.252;2022-12-11T09:26:02;4.35;;;1.23;;
14369;SDS011;7268;50.792;0.252;2022-12-11T09:28:30;5.82;;;1.70;;
14369;SDS011;7268;50.792;0.252;2022-12-11T09:30:58;5.35;;;1.95;;
14369;SDS011;7268;50.792;0.252;2022-12-11T09:33:25;5.72;;;2.20;;
14369;SDS011;7268;50.792;0.252;2022-12-11T09:35:56;8.95;;;2.10;;
14369;SDS011;7268;50.792;0.252;2022-12-11T09:38:24;4.28;;;2.42;;
14369;SDS011;7268;50.792;0.252;2022-12-11T09:40:51;6.43;;;2.85;;
14369;SDS011;7268;50.792;0.252;2022-12-11T09:43:25;5.93;;;2.50;;
14369;SDS011;7268;50.792;0.252;2022-12-11T09:45:56;5.07;;;2.58;;
14369;SDS011;7268;50.792;0.252;2022-12-11T09:48:23;10.65;;;3.42;;
14369;SDS011;7268;50.792;0.252;2022-12-11T09:50:52;6.88;;;3.08;;
14369;SDS011;7268;50.792;0.252;2022-12-11T09:53:31;11.23;;;3.75;;
14369;SDS011;7268;50.792;0.252;2022-12-11T09:56:03;7.72;;;3.45;;
14369;SDS011;7268;50.792;0.252;2022-12-11T09:58:36;6.07;;;2.50;;
14369;SDS011;7268;50.792;0.252;2022-12-11T10:03:43;4.13;;;2.00;;
14369;SDS011;7268;50.792;0.252;2022-12-11T10:06:16;7.35;;;3.05;;
14369;SDS011;7268;50.792;0.252;2022-12-11T10:19:00;3.97;;;1.60;;
14369;SDS011;7268;50.792;0.252;2022-12-11T10:21:31;5.03;;;2.55;;
14369;SDS011;7268;50.792;0.252;2022-12-11T10:24:02;4.55;;;2.53;;
14369;SDS011;7268;50.792;0.252;2022-12-11T10:26:30;8.27;;;3.22;;
14369;SDS011;7268;50.792;0.252;2022-12-11T10:28:58;5.20;;;2.42;;
14369;SDS011;7268;50.792;0.252;2022-12-11T10:34:00;4.78;;;2.47;;
14369;SDS011;7268;50.792;0.252;2022-12-11T10:36:33;8.07;;;3.67;;
14369;SDS011;7268;50.792;0.252;2022-12-11T10:39:02;11.25;;;3.38;;
14369;SDS011;7268;50.792;0.252;2022-12-11T10:41:35;7.72;;;3.70;;
14369;SDS011;7268;50.792;0.252;2022-12-11T10:44:14;6.88;;;3.13;;
14369;SDS011;7268;50.792;0.252;2022-12-11T10:46:42;7.15;;;3.10;;
14369;SDS011;7268;50.792;0.252;2022-12-11T10:49:19;6.43;;;2.60;;
14369;SDS011;7268;50.792;0.252;2022-12-11T10:51:47;5.35;;;2.60;;
14369;SDS011;7268;50.792;0.252;2022-12-11T10:56:57;3.60;;;1.60;;
14369;SDS011;7268;50.792;0.252;2022-12-11T10:59:37;4.90;;;1.70;;
14369;SDS011;7268;50.792;0.252;2022-12-11T11:02:05;3.72;;;1.55;;
14369;SDS011;7268;50.792;0.252;2022-12-11T11:04:36;4.68;;;1.33;;
14369;SDS011;7268;50.792;0.252;2022-12-11T11:07:17;2.80;;;1.45;;
14369;SDS011;7268;50.792;0.252;2022-12-11T11:09:45;6.13;;;1.90;;
14369;SDS011;7268;50.792;0.252;2022-12-11T11:12:22;7.50;;;2.35;;
14369;SDS011;7268;50.792;0.252;2022-12-11T11:15:02;10.38;;;3.88;;
14369;SDS011;7268;50.792;0.252;2022-12-11T11:17:30;10.68;;;4.57;;
14369;SDS011;7268;50.792;0.252;2022-12-11T11:20:03;9.70;;;3.90;;
14369;SDS011;7268;50.792;0.252;2022-12-11T11:22:32;10.60;;;5.00;;
14369;SDS011;7268;50.792;0.252;2022-12-11T11:25:03;12.55;;;4.88;;
14369;SDS011;7268;50.792;0.252;2022-12-11T11:27:39;12.60;;;5.00;;
14369;SDS011;7268;50.792;0.252;2022-12-11T11:30:22;9.93;;;4.63;;
14369;SDS011;7268;50.792;0.252;2022-12-11T11:32:50;13.85;;;4.93;;
14369;SDS011;7268;50.792;0.252;2022-12-11T11:35:21;14.00;;;4.88;;
14369;SDS011;7268;50.792;0.252;2022-12-11T11:40:43;13.27;;;4.82;;
14369;SDS011;7268;50.792;0.252;2022-12-11T11:48:30;12.68;;;3.72;;
14369;SDS011;7268;50.792;0.252;2022-12-11T11:50:55;7.38;;;3.47;;
14369;SDS011;7268;50.792;0.252;2022-12-11T11:53:26;8.02;;;3.65;;
14369;SDS011;7268;50.792;0.252;2022-12-11T11:56:16;10.88;;;4.15;;
14369;SDS011;7268;50.792;0.252;2022-12-11T11:58:46;4.60;;;2.60;;
14369;SDS011;7268;50.792;0.252;2022-12-11T12:01:17;14.55;;;5.07;;
14369;SDS011;7268;50.792;0.252;2022-12-11T12:03:45;14.63;;;5.80;;
14369;SDS011;7268;50.792;0.252;2022-12-11T12:11:29;19.02;;;6.47;;
14369;SDS011;7268;50.792;0.252;2022-12-11T12:21:46;11.23;;;5.20;;
14369;SDS011;7268;50.792;0.252;2022-12-11T12:27:12;14.95;;;6.43;;
14369;SDS011;7268;50.792;0.252;2022-12-11T12:30:07;12.15;;;4.28;;
14369;SDS011;7268;50.792;0.252;2022-12-11T12:32:44;3.55;;;1.48;;
14369;SDS011;7268;50.792;0.252;2022-12-11T12:35:18;1.35;;;0.43;;
14369;SDS011;7268;50.792;0.252;2022-12-11T12:37:55;2.95;;;0.20;;
14369;SDS011;7268;50.792;0.252;2022-12-11T12:40:28;1.08;;;0.17;;
14369;SDS011;7268;50.792;0.252;2022-12-11T12:48:13;4.40;;;0.60;;
14369;SDS011;7268;50.792;0.252;2022-12-11T12:50:45;1.45;;;0.50;;
14369;SDS011;7268;50.792;0.252;2022-12-11T12:53:19;2.10;;;0.50;;
14369;SDS011;7268;50.792;0.252;2022-12-11T12:55:48;1.63;;;0.50;;
14369;SDS011;7268;50.792;0.252;2022-12-11T13:01:06;0.95;;;0.32;;
14369;SDS011;7268;50.792;0.252;2022-12-11T13:03:54;0.90;;;0.70;;
14369;SDS011;7268;50.792;0.252;2022-12-11T13:09:09;2.38;;;0.60;;
14369;SDS011;7268;50.792;0.252;2022-12-11T13:11:37;5.18;;;1.15;;
14369;SDS011;7268;50.792;0.252;2022-12-11T13:16:42;3.38;;;0.73;;
14369;SDS011;7268;50.792;0.252;2022-12-11T13:19:43;3.90;;;0.22;;
14369;SDS011;7268;50.792;0.252;2022-12-11T13:32:43;0.68;;;0.22;;
14369;SDS011;7268;50.792;0.252;2022-12-11T13:35:15;1.20;;;0.13;;
14369;SDS011;7268;50.792;0.252;2022-12-11T13:37:44;2.72;;;0.40;;
14369;SDS011;7268;50.792;0.252;2022-12-11T13:40:16;2.47;;;0.10;;
14369;SDS011;7268;50.792;0.252;2022-12-11T13:45:22;0.45;;;0.10;;
14369;SDS011;7268;50.792;0.252;2022-12-11T13:47:56;2.55;;;0.20;;
14369;SDS011;7268;50.792;0.252;2022-12-11T13:50:28;0.82;;;0.10;;
14369;SDS011;7268;50.792;0.252;2022-12-11T13:52:57;4.70;;;0.40;;
14369;SDS011;7268;50.792;0.252;2022-12-11T13:55:27;3.75;;;0.10;;
14369;SDS011;7268;50.792;0.252;2022-12-11T13:57:55;4.13;;;0.22;;
14369;SDS011;7268;50.792;0.252;2022-12-11T14:00:24;7.55;;;0.30;;
14369;SDS011;7268;50.792;0.252;2022-12-11T14:02:52;1.27;;;0.20;;
14369;SDS011;7268;50.792;0.252;2022-12-11T14:05:20;6.45;;;0.20;;
14369;SDS011;7268;50.792;0.252;2022-12-11T14:07:49;0.32;;;0.10;;
14369;SDS011;7268;50.792;0.252;2022-12-11T14:10:24;0.55;;;0.10;;
14369;SDS011;7268;50.792;0.252;2022-12-11T14:12:58;0.30;;;0.20;;
14369;SDS011;7268;50.792;0.252;2022-12-11T14:15:27;1.23;;;0.30;;
14369;SDS011;7268;50.792;0.252;2022-12-11T14:17:55;1.02;;;0.30;;
14369;SDS011;7268;50.792;0.252;2022-12-11T14:20:27;0.47;;;0.30;;
14369;SDS011;7268;50.792;0.252;2022-12-11T14:25:31;1.30;;;0.20;;
14369;SDS011;7268;50.792;0.252;2022-12-11T14:27:59;3.03;;;0.52;;
14369;SDS011;7268;50.792;0.252;2022-12-11T14:30:28;3.13;;;0.63;;
14369;SDS011;7268;50.792;0.252;2022-12-11T14:32:56;5.85;;;2.10;;
14369;SDS011;7268;50.792;0.252;2022-12-11T14:35:34;14.57;;;5.00;;
14369;SDS011;7268;50.792;0.252;2022-12-11T14:38:26;9.25;;;3.83;;
14369;SDS011;7268;50.792;0.252;2022-12-11T14:40:54;12.90;;;3.92;;
14369;SDS011;7268;50.792;0.252;2022-12-11T14:43:25;9.60;;;4.20;;
14369;SDS011;7268;50.792;0.252;2022-12-11T14:45:57;7.47;;;3.40;;
14369;SDS011;7268;50.792;0.252;2022-12-11T14:48:27;4.38;;;1.30;;
14369;SDS011;7268;50.792;0.252;2022-12-11T14:50:56;2.78;;;0.80;;
14369;SDS011;7268;50.792;0.252;2022-12-11T14:53:26;3.20;;;1.00;;
14369;SDS011;7268;50.792;0.252;2022-12-11T14:55:56;3.13;;;1.10;;
14369;SDS011;7268;50.792;0.252;2022-12-11T14:58:26;3.17;;;0.70;;
14369;SDS011;7268;50.792;0.252;2022-12-11T15:03:28;1.00;;;0.60;;
14369;SDS011;7268;50.792;0.252;2022-12-11T15:05:57;1.75;;;0.63;;
14369;SDS011;7268;50.792;0.252;2022-12-11T15:11:08;2.88;;;0.40;;
14369;SDS011;7268;50.792;0.252;2022-12-11T15:13:47;2.55;;;0.40;;
14369;SDS011;7268;50.792;0.252;2022-12-11T15:16:15;3.47;;;0.50;;
14369;SDS011;7268;50.792;0.252;2022-12-11T15:18:46;1.70;;;0.93;;
14369;SDS011;7268;50.792;0.252;2022-12-11T15:21:14;1.73;;;0.50;;
14369;SDS011;7268;50.792;0.252;2022-12-11T15:23:49;1.02;;;0.50;;
14369;SDS011;7268;50.792;0.252;2022-12-11T15:26:18;1.73;;;0.40;;
14369;SDS011;7268;50.792;0.252;2022-12-11T15:28:45;2.42;;;0.60;;
14369;SDS011;7268;50.792;0.252;2022-12-11T15:31:31;3.20;;;1.90;;
14369;SDS011;7268;50.792;0.252;2022-12-11T15:34:00;5.70;;;2.10;;
14369;SDS011;7268;50.792;0.252;2022-12-11T15:36:32;5.75;;;1.50;;
14369;SDS011;7268;50.792;0.252;2022-12-11T15:39:04;5.30;;;1.85;;
14369;SDS011;7268;50.792;0.252;2022-12-11T15:41:33;7.07;;;1.70;;
14369;SDS011;7268;50.792;0.252;2022-12-11T15:44:01;4.38;;;1.50;;
14369;SDS011;7268;50.792;0.252;2022-12-11T15:46:34;8.00;;;1.42;;
14369;SDS011;7268;50.792;0.252;2022-12-11T15:49:04;2.22;;;0.90;;
14369;SDS011;7268;50.792;0.252;2022-12-11T15:51:35;3.35;;;1.10;;
14369;SDS011;7268;50.792;0.252;2022-12-11T15:54:08;8.40;;;2.92;;
14369;SDS011;7268;50.792;0.252;2022-12-11T15:56:35;9.45;;;2.38;;
14369;SDS011;7268;50.792;0.252;2022-12-11T15:59:03;6.32;;;2.35;;
14369;SDS011;7268;50.792;0.252;2022-12-11T16:01:32;5.78;;;2.72;;
14369;SDS011;7268;50.792;0.252;2022-12-11T16:03:59;8.93;;;3.75;;
14369;SDS011;7268;50.792;0.252;2022-12-11T16:06:30;14.13;;;2.95;;
14369;SDS011;7268;50.792;0.252;2022-12-11T16:08:58;2.50;;;1.00;;
14369;SDS011;7268;50.792;0.252;2022-12-11T16:11:26;3.22;;;1.13;;
14369;SDS011;7268;50.792;0.252;2022-12-11T16:13:53;3.17;;;0.90;;
14369;SDS011;7268;50.792;0.252;2022-12-11T16:16:21;5.00;;;1.95;;
14369;SDS011;7268;50.792;0.252;2022-12-11T16:18:48;1.10;;;0.77;;
14369;SDS011;7268;50.792;0.252;2022-12-11T16:21:16;3.03;;;1.30;;
14369;SDS011;7268;50.792;0.252;2022-12-11T16:23:47;9.60;;;2.83;;
14369;SDS011;7268;50.792;0.252;2022-12-11T16:26:14;9.57;;;3.10;;
14369;SDS011;7268;50.792;0.252;2022-12-11T16:28:41;5.07;;;2.30;;
14369;SDS011;7268;50.792;0.252;2022-12-11T16:31:09;5.13;;;2.50;;
14369;SDS011;7268;50.792;0.252;2022-12-11T16:33:37;16.90;;;6.20;;
14369;SDS011;7268;50.792;0.252;2022-12-11T16:36:14;6.97;;;3.25;;
14369;SDS011;7268;50.792;0.252;2022-12-11T16:38:45;7.90;;;3.38;;
14369;SDS011;7268;50.792;0.252;2022-12-11T16:41:19;45.25;;;14.05;;
14369;SDS011;7268;50.792;0.252;2022-12-11T16:43:46;28.23;;;8.45;;
14369;SDS011;7268;50.792;0.252;2022-12-11T16:46:17;72.32;;;27.42;;
14369;SDS011;7268;50.792;0.252;2022-12-11T16:48:44;55.33;;;22.33;;
14369;SDS011;7268;50.792;0.252;2022-12-11T16:51:12;27.17;;;10.07;;
14369;SDS011;7268;50.792;0.252;2022-12-11T16:53:39;31.23;;;13.77;;